sensor_id;sensor_type;location;lat;lon;timestamp;pressure;altitude;pressure_sealevel;temperature;humidity
37764;BME280;23602;51.084;7.090;2023-12-07T00:01:13;100305.28;;;20.11;66.64
37764;BME280;23602;51.084;7.090;2023-12-07T00:03:38;100307.44;;;20.09;66.71
37764;BME280;23602;51.084;7.090;2023-12-07T00:06:04;100310.44;;;20.07;66.99
37764;BME280;23602;51.084;7.090;2023-12-07T00:08:29;100314.00;;;20.08;66.68
37764;BME280;23602;51.084;7.090;2023-12-07T00:10:54;100312.34;;;20.07;66.68
37764;BME280;23602;51.084;7.090;2023-12-07T00:13:20;100321.91;;;20.04;66.60
37764;BME280;23602;51.084;7.090;2023-12-07T00:15:45;100316.72;;;20.03;66.61
37764;BME280;23602;51.084;7.090;2023-12-07T00:18:10;100318.34;;;20.04;66.73
37764;BME280;23602;51.084;7.090;2023-12-07T00:20:35;100311.25;;;19.98;66.55
37764;BME280;23602;51.084;7.090;2023-12-07T00:23:01;100304.69;;;19.99;66.53
37764;BME280;23602;51.084;7.090;2023-12-07T00:25:48;100319.69;;;20.01;66.56
37764;BME280;23602;51.084;7.090;2023-12-07T00:28:13;100319.69;;;20.01;66.50
37764;BME280;23602;51.084;7.090;2023-12-07T00:30:39;100316.41;;;19.99;66.66
37764;BME280;23602;51.084;7.090;2023-12-07T00:33:04;100310.66;;;19.96;66.66
37764;BME280;23602;51.084;7.090;2023-12-07T00:35:29;100304.13;;;19.97;66.51
37764;BME280;23602;51.084;7.090;2023-12-07T00:37:55;100312.03;;;19.98;66.52
37764;BME280;23602;51.084;7.090;2023-12-07T00:40:21;100307.94;;;19.96;66.85
37764;BME280;23602;51.084;7.090;2023-12-07T00:42:47;100298.69;;;19.97;66.65
37764;BME280;23602;51.084;7.090;2023-12-07T00:45:13;100307.16;;;19.95;66.67
37764;BME280;23602;51.084;7.090;2023-12-07T00:47:39;100306.84;;;19.92;66.52
37764;BME280;23602;51.084;7.090;2023-12-07T00:50:04;100317.47;;;19.93;66.51
37764;BME280;23602;51.084;7.090;2023-12-07T00:52:30;100317.75;;;19.92;66.58
37764;BME280;23602;51.084;7.090;2023-12-07T00:54:55;100320.47;;;19.92;66.60
37764;BME280;23602;51.084;7.090;2023-12-07T00:57:21;100323.75;;;19.89;66.64
37764;BME280;23602;51.084;7.090;2023-12-07T00:59:47;100319.94;;;19.90;66.50
37764;BME280;23602;51.084;7.090;2023-12-07T01:02:12;100321.00;;;19.89;66.66
37764;BME280;23602;51.084;7.090;2023-12-07T01:04:37;100329.19;;;19.89;66.60
37764;BME280;23602;51.084;7.090;2023-12-07T01:07:03;100328.91;;;19.85;66.78
37764;BME280;23602;51.084;7.090;2023-12-07T01:09:28;100340.63;;;19.86;66.61
37764;BME280;23602;51.084;7.090;2023-12-07T01:11:53;100343.34;;;19.86;66.81
37764;BME280;23602;51.084;7.090;2023-12-07T01:14:19;100336.53;;;19.83;66.82
37764;BME280;23602;51.084;7.090;2023-12-07T01:16:44;100330.28;;;19.83;66.80
37764;BME280;23602;51.084;7.090;2023-12-07T01:19:10;100334.91;;;19.82;66.93
37764;BME280;23602;51.084;7.090;2023-12-07T01:21:36;100326.97;;;19.81;66.92
37764;BME280;23602;51.084;7.090;2023-12-07T01:24:01;100337.88;;;19.81;67.11
37764;BME280;23602;51.084;7.090;2023-12-07T01:26:27;100335.69;;;19.78;67.08
37764;BME280;23602;51.084;7.090;2023-12-07T01:28:52;100335.94;;;19.76;67.20
37764;BME280;23602;51.084;7.090;2023-12-07T01:31:17;100334.03;;;19.72;67.09
37764;BME280;23602;51.084;7.090;2023-12-07T01:33:43;100343.06;;;19.77;67.12
37764;BME280;23602;51.084;7.090;2023-12-07T01:36:09;100343.06;;;19.77;67.04
37764;BME280;23602;51.084;7.090;2023-12-07T01:38:35;100336.78;;;19.77;67.05
37764;BME280;23602;51.084;7.090;2023-12-07T01:41:00;100334.31;;;19.75;67.12
37764;BME280;23602;51.084;7.090;2023-12-07T01:43:25;100338.97;;;19.75;66.92
37764;BME280;23602;51.084;7.090;2023-12-07T01:45:51;100338.97;;;19.75;67.14
37764;BME280;23602;51.084;7.090;2023-12-07T01:48:19;100332.69;;;19.74;66.95
37764;BME280;23602;51.084;7.090;2023-12-07T01:50:45;100333.75;;;19.73;66.86
37764;BME280;23602;51.084;7.090;2023-12-07T01:53:11;100329.41;;;19.72;67.00
37764;BME280;23602;51.084;7.090;2023-12-07T01:55:37;100318.72;;;19.66;67.07
37764;BME280;23602;51.084;7.090;2023-12-07T01:58:04;100333.19;;;19.71;67.08
37764;BME280;23602;51.084;7.090;2023-12-07T02:00:29;100331.81;;;19.69;66.97
37764;BME280;23602;51.084;7.090;2023-12-07T02:02:55;100340.56;;;19.71;66.88
37764;BME280;23602;51.084;7.090;2023-12-07T02:05:21;100333.44;;;19.65;67.12
37764;BME280;23602;51.084;7.090;2023-12-07T02:07:46;100335.06;;;19.66;66.74
37764;BME280;23602;51.084;7.090;2023-12-07T02:10:12;100330.16;;;19.58;66.91
37764;BME280;23602;51.084;7.090;2023-12-07T02:12:38;100338.06;;;19.64;66.93
37764;BME280;23602;51.084;7.090;2023-12-07T02:15:04;100342.72;;;19.69;66.94
37764;BME280;23602;51.084;7.090;2023-12-07T02:20:20;100354.75;;;19.68;66.97
37764;BME280;23602;51.084;7.090;2023-12-07T02:22:51;100350.34;;;19.67;67.00
37764;BME280;23602;51.084;7.090;2023-12-07T02:25:19;100351.97;;;19.63;66.99
37764;BME280;23602;51.084;7.090;2023-12-07T02:27:46;100363.16;;;19.66;66.96
37764;BME280;23602;51.084;7.090;2023-12-07T02:30:12;100365.06;;;19.66;66.96
37764;BME280;23602;51.084;7.090;2023-12-07T02:32:39;100368.63;;;19.66;67.05
37764;BME280;23602;51.084;7.090;2023-12-07T02:35:05;100366.16;;;19.65;66.88
37764;BME280;23602;51.084;7.090;2023-12-07T02:37:38;100370.78;;;19.64;67.12
37764;BME280;23602;51.084;7.090;2023-12-07T02:40:06;100379.81;;;19.65;66.86
37764;BME280;23602;51.084;7.090;2023-12-07T02:42:40;100377.91;;;19.65;66.87
37764;BME280;23602;51.084;7.090;2023-12-07T02:45:09;100369.13;;;19.63;67.01
37764;BME280;23602;51.084;7.090;2023-12-07T02:47:34;100371.06;;;19.63;66.93
37764;BME280;23602;51.084;7.090;2023-12-07T02:50:00;100368.34;;;19.63;67.04
37764;BME280;23602;51.084;7.090;2023-12-07T02:52:25;100360.16;;;19.63;67.06
37764;BME280;23602;51.084;7.090;2023-12-07T02:54:50;100367.25;;;19.64;66.91
37764;BME280;23602;51.084;7.090;2023-12-07T02:57:16;100363.97;;;19.62;67.19
37764;BME280;23602;51.084;7.090;2023-12-07T02:59:41;100362.88;;;19.63;67.01
37764;BME280;23602;51.084;7.090;2023-12-07T03:02:06;100364.50;;;19.64;67.05
37764;BME280;23602;51.084;7.090;2023-12-07T03:04:32;100363.69;;;19.63;67.04
37764;BME280;23602;51.084;7.090;2023-12-07T03:06:58;100354.72;;;19.63;66.84
37764;BME280;23602;51.084;7.090;2023-12-07T03:09:23;100356.84;;;19.61;66.99
37764;BME280;23602;51.084;7.090;2023-12-07T03:11:48;100347.56;;;19.57;66.90
37764;BME280;23602;51.084;7.090;2023-12-07T03:14:13;100351.97;;;19.63;66.86
37764;BME280;23602;51.084;7.090;2023-12-07T03:16:39;100354.72;;;19.63;67.02
37764;BME280;23602;51.084;7.090;2023-12-07T03:19:04;100353.06;;;19.62;66.77
37764;BME280;23602;51.084;7.090;2023-12-07T03:21:29;100351.16;;;19.62;66.88
37764;BME280;23602;51.084;7.090;2023-12-07T03:23:55;100344.56;;;19.58;66.72
37764;BME280;23602;51.084;7.090;2023-12-07T03:26:20;100345.91;;;19.55;66.86
37764;BME280;23602;51.084;7.090;2023-12-07T03:28:46;100351.41;;;19.61;66.88
37764;BME280;23602;51.084;7.090;2023-12-07T03:31:11;100347.06;;;19.60;66.65
37764;BME280;23602;51.084;7.090;2023-12-07T03:33:36;100355.22;;;19.60;66.62
37764;BME280;23602;51.084;7.090;2023-12-07T03:36:03;100359.56;;;19.61;66.41
37764;BME280;23602;51.084;7.090;2023-12-07T03:38:29;100347.56;;;19.57;66.49
37764;BME280;23602;51.084;7.090;2023-12-07T03:40:54;100345.41;;;19.59;66.65
37764;BME280;23602;51.084;7.090;2023-12-07T03:43:19;100346.22;;;19.59;66.55
37764;BME280;23602;51.084;7.090;2023-12-07T03:45:46;100340.22;;;19.57;66.55
37764;BME280;23602;51.084;7.090;2023-12-07T03:48:11;100336.66;;;19.57;66.64
37764;BME280;23602;51.084;7.090;2023-12-07T03:50:36;100340.78;;;19.59;66.44
37764;BME280;23602;51.084;7.090;2023-12-07T03:53:01;100335.28;;;19.54;66.52
37764;BME280;23602;51.084;7.090;2023-12-07T03:55:27;100344.84;;;19.57;66.30
37764;BME280;23602;51.084;7.090;2023-12-07T03:57:52;100347.56;;;19.57;66.42
37764;BME280;23602;51.084;7.090;2023-12-07T04:00:18;100345.91;;;19.55;66.31
37764;BME280;23602;51.084;7.090;2023-12-07T04:02:43;100345.91;;;19.55;66.34
37764;BME280;23602;51.084;7.090;2023-12-07T04:05:08;100339.38;;;19.51;66.43
37764;BME280;23602;51.084;7.090;2023-12-07T04:07:34;100344.28;;;19.54;66.41
37764;BME280;23602;51.084;7.090;2023-12-07T04:09:59;100349.75;;;19.54;66.33
37764;BME280;23602;51.084;7.090;2023-12-07T04:12:25;100344.28;;;19.54;66.30
37764;BME280;23602;51.084;7.090;2023-12-07T04:14:50;100337.19;;;19.53;66.35
37764;BME280;23602;51.084;7.090;2023-12-07T04:17:17;100342.41;;;19.55;66.29
37764;BME280;23602;51.084;7.090;2023-12-07T04:19:42;100341.56;;;19.54;66.33
37764;BME280;23602;51.084;7.090;2023-12-07T04:22:07;100342.63;;;19.53;66.17
37764;BME280;23602;51.084;7.090;2023-12-07T04:24:32;100345.38;;;19.53;66.33
37764;BME280;23602;51.084;7.090;2023-12-07T04:26:58;100348.09;;;19.53;66.36
37764;BME280;23602;51.084;7.090;2023-12-07T04:29:23;100350.81;;;19.53;66.14
37764;BME280;23602;51.084;7.090;2023-12-07T04:31:48;100350.81;;;19.53;66.40
37764;BME280;23602;51.084;7.090;2023-12-07T04:34:13;100351.91;;;19.52;66.09
37764;BME280;23602;51.084;7.090;2023-12-07T04:36:39;100358.16;;;19.53;66.46
37764;BME280;23602;51.084;7.090;2023-12-07T04:39:04;100366.09;;;19.54;66.24
37764;BME280;23602;51.084;7.090;2023-12-07T04:41:29;100360.66;;;19.54;66.10
37764;BME280;23602;51.084;7.090;2023-12-07T04:43:54;100359.81;;;19.54;66.22
37764;BME280;23602;51.084;7.090;2023-12-07T04:46:20;100359.00;;;19.53;66.28
37764;BME280;23602;51.084;7.090;2023-12-07T04:48:45;100366.94;;;19.55;66.13
37764;BME280;23602;51.084;7.090;2023-12-07T04:51:10;100359.00;;;19.53;66.31
37764;BME280;23602;51.084;7.090;2023-12-07T04:53:36;100363.38;;;19.54;66.29
37764;BME280;23602;51.084;7.090;2023-12-07T04:56:01;100361.72;;;19.53;66.25
37764;BME280;23602;51.084;7.090;2023-12-07T04:58:27;100367.72;;;19.55;66.20
37764;BME280;23602;51.084;7.090;2023-12-07T05:00:52;100363.94;;;19.57;66.20
37764;BME280;23602;51.084;7.090;2023-12-07T05:03:18;100356.28;;;19.53;66.08
37764;BME280;23602;51.084;7.090;2023-12-07T05:05:43;100371.84;;;19.58;65.93
37764;BME280;23602;51.084;7.090;2023-12-07T05:08:08;100371.84;;;19.58;66.17
37764;BME280;23602;51.084;7.090;2023-12-07T05:10:33;100367.22;;;19.59;65.93
37764;BME280;23602;51.084;7.090;2023-12-07T05:12:59;100375.16;;;19.60;66.10
37764;BME280;23602;51.084;7.090;2023-12-07T05:15:24;100372.66;;;19.59;65.93
37764;BME280;23602;51.084;7.090;2023-12-07T05:17:50;100374.84;;;19.57;65.95
37764;BME280;23602;51.084;7.090;2023-12-07T05:20:15;100370.41;;;19.50;65.67
37764;BME280;23602;51.084;7.090;2023-12-07T05:22:40;100380.25;;;19.51;65.88
37764;BME280;23602;51.084;7.090;2023-12-07T05:25:06;100387.88;;;19.49;65.68
37764;BME280;23602;51.084;7.090;2023-12-07T05:27:31;100377.81;;;19.50;65.58
37764;BME280;23602;51.084;7.090;2023-12-07T05:29:57;100382.44;;;19.49;65.70
37764;BME280;23602;51.084;7.090;2023-12-07T05:32:22;100394.44;;;19.53;65.69
37764;BME280;23602;51.084;7.090;2023-12-07T05:34:47;100395.81;;;19.56;65.52
37764;BME280;23602;51.084;7.090;2023-12-07T05:37:13;100397.47;;;19.57;65.72
37764;BME280;23602;51.084;7.090;2023-12-07T05:39:38;100388.19;;;19.58;65.53
37764;BME280;23602;51.084;7.090;2023-12-07T05:42:03;100391.75;;;19.59;65.46
37764;BME280;23602;51.084;7.090;2023-12-07T05:44:29;100400.47;;;19.61;65.50
37764;BME280;23602;51.084;7.090;2023-12-07T05:46:55;100394.19;;;19.55;65.63
37764;BME280;23602;51.084;7.090;2023-12-07T05:49:21;100405.13;;;19.60;65.38
37764;BME280;23602;51.084;7.090;2023-12-07T05:51:47;100401.31;;;19.61;65.53
37764;BME280;23602;51.084;7.090;2023-12-07T05:54:14;100401.06;;;19.63;65.34
37764;BME280;23602;51.084;7.090;2023-12-07T05:56:40;100398.34;;;19.63;65.39
37764;BME280;23602;51.084;7.090;2023-12-07T05:59:06;100392.06;;;19.62;65.34
37764;BME280;23602;51.084;7.090;2023-12-07T06:01:31;100385.78;;;19.62;65.37
37764;BME280;23602;51.084;7.090;2023-12-07T06:03:57;100378.66;;;19.61;65.39
37764;BME280;23602;51.084;7.090;2023-12-07T06:06:22;100381.38;;;19.61;65.19
37764;BME280;23602;51.084;7.090;2023-12-07T06:08:48;100381.69;;;19.64;65.08
37764;BME280;23602;51.084;7.090;2023-12-07T06:11:13;100381.97;;;19.63;65.43
37764;BME280;23602;51.084;7.090;2023-12-07T06:13:38;100386.31;;;19.64;65.36
37764;BME280;23602;51.084;7.090;2023-12-07T06:16:04;100387.97;;;19.65;65.34
37764;BME280;23602;51.084;7.090;2023-12-07T06:18:30;100380.31;;;19.62;65.11
37764;BME280;23602;51.084;7.090;2023-12-07T06:20:55;100386.09;;;19.65;65.26
37764;BME280;23602;51.084;7.090;2023-12-07T06:23:21;100371.31;;;19.61;65.36
37764;BME280;23602;51.084;7.090;2023-12-07T06:25:46;100366.16;;;19.65;65.02
37764;BME280;23602;51.084;7.090;2023-12-07T06:28:12;100366.69;;;19.62;65.19
37764;BME280;23602;51.084;7.090;2023-12-07T06:30:38;100371.63;;;19.65;65.22
37764;BME280;23602;51.084;7.090;2023-12-07T06:33:03;100359.59;;;19.66;65.07
37764;BME280;23602;51.084;7.090;2023-12-07T06:35:28;100363.44;;;19.65;65.10
37764;BME280;23602;51.084;7.090;2023-12-07T06:37:55;100359.59;;;19.66;64.91
37764;BME280;23602;51.084;7.090;2023-12-07T06:40:20;100359.59;;;19.66;64.98
37764;BME280;23602;51.084;7.090;2023-12-07T06:42:46;100358.81;;;19.65;64.85
37764;BME280;23602;51.084;7.090;2023-12-07T06:45:11;100356.88;;;19.66;64.85
37764;BME280;23602;51.084;7.090;2023-12-07T06:47:39;100359.88;;;19.64;65.12
37764;BME280;23602;51.084;7.090;2023-12-07T06:50:05;100362.34;;;19.66;64.94
37764;BME280;23602;51.084;7.090;2023-12-07T06:52:33;100355.25;;;19.65;64.82
37764;BME280;23602;51.084;7.090;2023-12-07T06:54:59;100355.25;;;19.65;64.80
37764;BME280;23602;51.084;7.090;2023-12-07T06:57:24;100357.16;;;19.64;64.98
37764;BME280;23602;51.084;7.090;2023-12-07T06:59:50;100359.59;;;19.66;65.08
37764;BME280;23602;51.084;7.090;2023-12-07T07:02:15;100358.53;;;19.67;65.08
37764;BME280;23602;51.084;7.090;2023-12-07T07:04:40;100363.44;;;19.65;64.76
37764;BME280;23602;51.084;7.090;2023-12-07T07:07:06;100360.97;;;19.63;64.90
37764;BME280;23602;51.084;7.090;2023-12-07T07:09:31;100369.44;;;19.67;64.72
37764;BME280;23602;51.084;7.090;2023-12-07T07:11:57;100365.66;;;19.68;64.85
37764;BME280;23602;51.084;7.090;2023-12-07T07:14:22;100365.66;;;19.68;64.79
37764;BME280;23602;51.084;7.090;2023-12-07T07:16:47;100357.97;;;19.65;64.71
37764;BME280;23602;51.084;7.090;2023-12-07T07:19:13;100355.81;;;19.67;64.79
37764;BME280;23602;51.084;7.090;2023-12-07T07:21:38;100358.25;;;19.68;64.67
37764;BME280;23602;51.084;7.090;2023-12-07T07:24:04;100352.00;;;19.68;64.73
37764;BME280;23602;51.084;7.090;2023-12-07T07:26:29;100357.72;;;19.66;64.69
37764;BME280;23602;51.084;7.090;2023-12-07T07:28:54;100362.63;;;19.69;64.53
37764;BME280;23602;51.084;7.090;2023-12-07T07:31:20;100364.53;;;19.69;64.56
37764;BME280;23602;51.084;7.090;2023-12-07T07:33:46;100363.47;;;19.70;64.57
37764;BME280;23602;51.084;7.090;2023-12-07T07:36:14;100364.53;;;19.69;64.48
37764;BME280;23602;51.084;7.090;2023-12-07T07:38:40;100372.19;;;19.72;64.72
37764;BME280;23602;51.084;7.090;2023-12-07T07:41:05;100373.03;;;19.72;64.43
37764;BME280;23602;51.084;7.090;2023-12-07T07:43:31;100367.56;;;19.72;64.29
37764;BME280;23602;51.084;7.090;2023-12-07T07:45:56;100365.66;;;19.73;64.36
37764;BME280;23602;51.084;7.090;2023-12-07T07:48:22;100363.75;;;19.73;64.58
37764;BME280;23602;51.084;7.090;2023-12-07T07:50:47;100362.63;;;19.69;64.49
37764;BME280;23602;51.084;7.090;2023-12-07T07:53:12;100365.66;;;19.73;64.40
37764;BME280;23602;51.084;7.090;2023-12-07T07:55:38;100367.84;;;19.76;64.46
37764;BME280;23602;51.084;7.090;2023-12-07T07:58:03;100364.31;;;19.75;64.37
37764;BME280;23602;51.084;7.090;2023-12-07T08:00:28;100366.22;;;19.75;64.47
37764;BME280;23602;51.084;7.090;2023-12-07T08:02:54;100359.41;;;19.77;64.32
37764;BME280;23602;51.084;7.090;2023-12-07T08:05:19;100356.38;;;19.74;64.02
37764;BME280;23602;51.084;7.090;2023-12-07T08:07:44;100357.53;;;19.78;64.22
37764;BME280;23602;51.084;7.090;2023-12-07T08:10:09;100359.13;;;19.79;64.17
37764;BME280;23602;51.084;7.090;2023-12-07T08:12:36;100360.78;;;19.75;64.14
37764;BME280;23602;51.084;7.090;2023-12-07T08:15:01;100366.78;;;19.77;64.14
37764;BME280;23602;51.084;7.090;2023-12-07T08:17:26;100366.78;;;19.77;64.16
37764;BME280;23602;51.084;7.090;2023-12-07T08:19:52;100362.13;;;19.72;64.13
37764;BME280;23602;51.084;7.090;2023-12-07T08:22:18;100375.22;;;19.75;63.95
37764;BME280;23602;51.084;7.090;2023-12-07T08:24:43;100368.94;;;19.75;63.97
37764;BME280;23602;51.084;7.090;2023-12-07T08:27:08;100377.13;;;19.75;63.75
37764;BME280;23602;51.084;7.090;2023-12-07T08:29:34;100374.41;;;19.75;63.84
37764;BME280;23602;51.084;7.090;2023-12-07T08:31:59;100370.31;;;19.72;63.77
37764;BME280;23602;51.084;7.090;2023-12-07T08:34:25;100368.41;;;19.73;64.02
37764;BME280;23602;51.084;7.090;2023-12-07T08:36:51;100364.84;;;19.72;63.74
37764;BME280;23602;51.084;7.090;2023-12-07T08:39:16;100377.13;;;19.75;63.77
37764;BME280;23602;51.084;7.090;2023-12-07T08:41:41;100369.47;;;19.72;63.57
37764;BME280;23602;51.084;7.090;2023-12-07T08:44:07;100370.84;;;19.74;63.57
37764;BME280;23602;51.084;7.090;2023-12-07T08:46:32;100377.13;;;19.75;63.62
37764;BME280;23602;51.084;7.090;2023-12-07T08:48:58;100387.75;;;19.76;63.46
37764;BME280;23602;51.084;7.090;2023-12-07T08:51:23;100391.00;;;19.73;63.15
37764;BME280;23602;51.084;7.090;2023-12-07T08:53:49;100391.31;;;19.77;63.28
37764;BME280;23602;51.084;7.090;2023-12-07T08:56:16;100387.75;;;19.76;63.42
37764;BME280;23602;51.084;7.090;2023-12-07T08:58:41;100388.31;;;19.78;63.34
37764;BME280;23602;51.084;7.090;2023-12-07T09:01:07;100379.84;;;19.75;63.30
37764;BME280;23602;51.084;7.090;2023-12-07T09:03:32;100385.88;;;19.77;63.08
37764;BME280;23602;51.084;7.090;2023-12-07T09:05:59;100386.13;;;19.75;63.14
37764;BME280;23602;51.084;7.090;2023-12-07T09:08:24;100388.31;;;19.78;63.07
37764;BME280;23602;51.084;7.090;2023-12-07T09:10:49;100391.88;;;19.79;62.89
37764;BME280;23602;51.084;7.090;2023-12-07T09:13:17;100394.59;;;19.79;62.81
37764;BME280;23602;51.084;7.090;2023-12-07T09:15:42;100384.22;;;19.76;62.97
37764;BME280;23602;51.084;7.090;2023-12-07T09:18:07;100391.63;;;19.80;62.94
37764;BME280;23602;51.084;7.090;2023-12-07T09:20:33;100392.69;;;19.79;63.07
37764;BME280;23602;51.084;7.090;2023-12-07T09:22:58;100387.25;;;19.79;62.98
37764;BME280;23602;51.084;7.090;2023-12-07T09:25:23;100392.16;;;19.77;62.75
37764;BME280;23602;51.084;7.090;2023-12-07T09:27:52;100388.63;;;19.82;62.59
37764;BME280;23602;51.084;7.090;2023-12-07T09:30:18;100391.34;;;19.82;62.75
37764;BME280;23602;51.084;7.090;2023-12-07T09:32:43;100383.16;;;19.82;62.73
37764;BME280;23602;51.084;7.090;2023-12-07T09:35:09;100378.78;;;19.81;62.62
37764;BME280;23602;51.084;7.090;2023-12-07T09:37:40;100381.78;;;19.79;62.56
37764;BME280;23602;51.084;7.090;2023-12-07T09:40:06;100382.09;;;19.83;62.55
37764;BME280;23602;51.084;7.090;2023-12-07T09:42:32;100379.34;;;19.78;62.63
37764;BME280;23602;51.084;7.090;2023-12-07T09:44:58;100376.88;;;19.81;62.42
37764;BME280;23602;51.084;7.090;2023-12-07T09:47:26;100395.44;;;19.84;62.43
37764;BME280;23602;51.084;7.090;2023-12-07T09:49:52;100388.94;;;19.85;62.31
37764;BME280;23602;51.084;7.090;2023-12-07T09:52:18;100385.38;;;19.85;62.43
37764;BME280;23602;51.084;7.090;2023-12-07T09:54:44;100377.16;;;19.80;62.30
37764;BME280;23602;51.084;7.090;2023-12-07T09:57:10;100376.09;;;19.86;62.29
37764;BME280;23602;51.084;7.090;2023-12-07T09:59:36;100357.78;;;19.81;62.15
37764;BME280;23602;51.084;7.090;2023-12-07T10:02:01;100364.94;;;19.87;62.18
37764;BME280;23602;51.084;7.090;2023-12-07T10:04:27;100364.94;;;19.87;62.06
37764;BME280;23602;51.084;7.090;2023-12-07T10:06:52;100357.28;;;19.84;62.12
37764;BME280;23602;51.084;7.090;2023-12-07T10:09:19;100363.03;;;19.88;62.25
37764;BME280;23602;51.084;7.090;2023-12-07T10:11:45;100356.47;;;19.89;61.98
37764;BME280;23602;51.084;7.090;2023-12-07T10:14:11;100356.47;;;19.89;61.98
37764;BME280;23602;51.084;7.090;2023-12-07T10:16:37;100354.03;;;19.87;62.02
37764;BME280;23602;51.084;7.090;2023-12-07T10:19:13;100355.38;;;19.90;62.09
37764;BME280;23602;51.084;7.090;2023-12-07T10:21:38;100357.28;;;19.89;61.99
37764;BME280;23602;51.084;7.090;2023-12-07T10:24:05;100360.03;;;19.89;61.91
37764;BME280;23602;51.084;7.090;2023-12-07T10:26:30;100352.38;;;19.91;61.98
37764;BME280;23602;51.084;7.090;2023-12-07T10:28:55;100341.22;;;19.88;61.94
37764;BME280;23602;51.084;7.090;2023-12-07T10:31:21;100324.56;;;19.89;61.84
37764;BME280;23602;51.084;7.090;2023-12-07T10:33:50;100342.03;;;19.93;61.75
37764;BME280;23602;51.084;7.090;2023-12-07T10:36:15;100336.31;;;19.90;61.54
37764;BME280;23602;51.084;7.090;2023-12-07T10:38:40;100335.78;;;19.93;61.71
37764;BME280;23602;51.084;7.090;2023-12-07T10:41:12;100335.50;;;19.94;61.70
37764;BME280;23602;51.084;7.090;2023-12-07T10:43:42;100323.75;;;19.94;61.46
37764;BME280;23602;51.084;7.090;2023-12-07T10:46:08;100328.38;;;19.93;61.47
37764;BME280;23602;51.084;7.090;2023-12-07T10:48:34;100331.13;;;19.93;61.45
37764;BME280;23602;51.084;7.090;2023-12-07T10:51:02;100322.69;;;19.95;61.49
37764;BME280;23602;51.084;7.090;2023-12-07T10:53:37;100304.13;;;19.92;61.37
37764;BME280;23602;51.084;7.090;2023-12-07T10:56:10;100312.31;;;19.92;61.65
37764;BME280;23602;51.084;7.090;2023-12-07T10:58:35;100309.03;;;19.95;61.34
37764;BME280;23602;51.084;7.090;2023-12-07T11:01:01;100296.22;;;19.95;61.53
37764;BME280;23602;51.084;7.090;2023-12-07T11:03:27;100282.00;;;19.93;61.53
37764;BME280;23602;51.084;7.090;2023-12-07T11:05:54;100276.31;;;19.95;61.40
37764;BME280;23602;51.084;7.090;2023-12-07T11:08:45;100259.94;;;19.95;61.43
37764;BME280;23602;51.084;7.090;2023-12-07T11:11:27;100256.94;;;19.96;61.33
37764;BME280;23602;51.084;7.090;2023-12-07T11:13:58;100250.13;;;19.99;61.54
37764;BME280;23602;51.084;7.090;2023-12-07T11:16:38;100254.50;;;20.00;61.41
37764;BME280;23602;51.084;7.090;2023-12-07T11:19:05;100249.03;;;20.00;61.30
37764;BME280;23602;51.084;7.090;2023-12-07T11:21:30;100241.69;;;20.00;61.35
37764;BME280;23602;51.084;7.090;2023-12-07T11:23:55;100236.47;;;19.99;61.28
37764;BME280;23602;51.084;7.090;2023-12-07T11:26:24;100232.41;;;20.01;61.05
37764;BME280;23602;51.084;7.090;2023-12-07T11:28:50;100228.03;;;20.00;61.27
37764;BME280;23602;51.084;7.090;2023-12-07T11:31:16;100230.50;;;20.02;61.15
37764;BME280;23602;51.084;7.090;2023-12-07T11:33:42;100225.03;;;20.02;61.02
37764;BME280;23602;51.084;7.090;2023-12-07T11:36:09;100225.59;;;20.04;61.00
37764;BME280;23602;51.084;7.090;2023-12-07T11:38:39;100215.78;;;20.03;61.07
37764;BME280;23602;51.084;7.090;2023-12-07T11:41:20;100206.47;;;20.04;61.09
37764;BME280;23602;51.084;7.090;2023-12-07T11:43:45;100206.47;;;20.04;60.81
37764;BME280;23602;51.084;7.090;2023-12-07T11:46:12;100197.22;;;20.05;61.16
37764;BME280;23602;51.084;7.090;2023-12-07T11:48:37;100187.94;;;20.06;60.94
37764;BME280;23602;51.084;7.090;2023-12-07T11:51:06;100189.56;;;20.07;60.86
37764;BME280;23602;51.084;7.090;2023-12-07T11:53:37;100180.31;;;20.08;60.96
37764;BME280;23602;51.084;7.090;2023-12-07T11:56:07;100171.56;;;20.06;60.92
37764;BME280;23602;51.084;7.090;2023-12-07T11:58:34;100172.97;;;20.08;60.77
37764;BME280;23602;51.084;7.090;2023-12-07T12:01:00;100168.84;;;20.06;60.83
37764;BME280;23602;51.084;7.090;2023-12-07T12:03:27;100163.94;;;20.08;60.73
37764;BME280;23602;51.084;7.090;2023-12-07T12:05:53;100162.28;;;20.07;60.56
37764;BME280;23602;51.084;7.090;2023-12-07T12:08:20;100158.22;;;20.09;60.59
37764;BME280;23602;51.084;7.090;2023-12-07T12:10:46;100165.03;;;20.07;60.64
37764;BME280;23602;51.084;7.090;2023-12-07T12:13:12;100160.09;;;20.04;60.45
37764;BME280;23602;51.084;7.090;2023-12-07T12:15:41;100160.09;;;20.09;60.39
37764;BME280;23602;51.084;7.090;2023-12-07T12:18:07;100155.75;;;20.03;60.40
37764;BME280;23602;51.084;7.090;2023-12-07T12:20:33;100156.84;;;20.07;60.58
37764;BME280;23602;51.084;7.090;2023-12-07T12:22:59;100164.47;;;20.05;60.56
37764;BME280;23602;51.084;7.090;2023-12-07T12:25:26;100166.69;;;20.08;60.63
37764;BME280;23602;51.084;7.090;2023-12-07T12:27:54;100166.69;;;20.08;60.68
37764;BME280;23602;51.084;7.090;2023-12-07T12:30:21;100165.03;;;20.07;60.53
37764;BME280;23602;51.084;7.090;2023-12-07T12:32:48;100161.75;;;20.10;60.31
37764;BME280;23602;51.084;7.090;2023-12-07T12:35:14;100153.56;;;20.10;60.10
37764;BME280;23602;51.084;7.090;2023-12-07T12:37:42;100151.66;;;20.10;60.38
37764;BME280;23602;51.084;7.090;2023-12-07T12:40:10;100150.31;;;20.13;60.52
37764;BME280;23602;51.084;7.090;2023-12-07T12:42:35;100139.41;;;20.13;60.23
37764;BME280;23602;51.084;7.090;2023-12-07T12:45:05;100130.66;;;20.11;60.45
37764;BME280;23602;51.084;7.090;2023-12-07T12:47:30;100132.81;;;20.14;60.44